Imperial County, CA

8:49 PM PDT on September 02, 2014 (GMT -0700)
El Centro Naval Air Facility | Change Station
CLOSE
Current Station
Airport
Location: El Centro,
Elevation: -43 ft
Nearby Weather Stations

Elev -43 ft 32.83 °N, 115.66 °W | Updated 53 minutes ago

Clear
Clear
99 °F
Feels Like 99 °F
N
13
Wind Variable Wind from WSW

Today
High -- | Low -- °F
--% Chance of Precip.
Yesterday
High -- | Low -- °F
Precip. -- in
6:17 AM 7:05 PM
First Quarter, 58% visible
Pressure 29.64 in
Visibility 10.0 miles
Clouds Clear
Dew Point 44 °F
Humidity 15%
Rainfall 0.00 in
Snow Depth Not available.
UV 0 out of 12
Pollen 8.00 out of 12
Ozone Good
PM2.5 Good
Flu Activity Not available.
METAR KNJK 030256Z 25011KT 10SM CLR 37/07 A2959 RMK AO2 SLP036 T03720067 53002 $

More Conditions Fewer Conditions

Pressure 29.64 in
Visibility 10.0 miles
Clouds Clear
Dew Point 44 °F
Humidity 15%
Rainfall 0.00 in
Snow Depth Not available.
UV 0 out of 12
Pollen 8.00 out of 12
Ozone Good
PM2.5 Good
Flu Activity Not available.
METAR KNJK 030256Z 25011KT 10SM CLR 37/07 A2959 RMK AO2 SLP036 T03720067 53002 $

More Conditions Fewer Conditions

10-Day Weather Forecast

Almanac

Astronomy

Sep. 02, 2014 Rise Set
Actual Time 6:17 AM PDT 7:05 PM PDT
Civil Twilight 5:52 AM PDT 7:30 PM PDT
Nautical Twilight 5:22 AM PDT 8:00 PM PDT
Astronomical Twilight 4:52 AM PDT 8:30 PM PDT
Moon 1:43 PM PDT (9/2) No Moon Set
Length of Visible Light 13h 38m
Length of Day
12h 48m
Tomorrow will be 1m 57s shorter.
First Quarter, 58% of the Moon is Illuminated
Today
First Quarter
Sep 8
Full
Sep 15
Last Quarter
Sep 24
New
Oct 1
First Quarter

Today's Extremes

State Highs State Lows

Community

WunderPhotos

Upload Photos

1,749,867 photos uploaded!

Nearby

Air Quality

  Air Quality AQ Index Pollutant
Yesterday Good
PM2.5
Yesterday Good
OZONE
Current Good
PM2.5
Current Good
OZONE
Tuesday Moderate
OZONE
Wednesday Moderate
OZONE
Thursday Good
OZONE
Friday Good
OZONE
Saturday Good
OZONE
Sunday Good
OZONE

Snow Depth

Station Depth Elevation
Leavitt Lake 0 in 9400 ft
Leavitt Meadows 0 in 7200 ft
Summit Meadow 0 in 9122 ft
Blue Lakes 0 in 8000 ft
Echo Peak 0 in 7800 ft

Earthquake Activity

City Distance Mag. Time & Date
San Jacinto, California 104 miles 2.9 8:30 PM PDT
2014-09-02
San Jacinto, California 104 miles 3.7 7:38 PM PDT
2014-09-02
Holtville, California 10 miles 2.5 5:43 PM PDT
2014-09-01
Holtville, California 12 miles 2.5 5:26 PM PDT
2014-09-01
Minimum magnitude displayed is 2.5.

Coastal Water Temperatures

Place Temperature
No Stations Reporting

Nearby Weather Stations